Wright City, Texas
Current Conditions -  °F | °C
As of 1:55 AM on Monday 22 Dec 2014 (Local Time) from KRFI Reporting Station
Overcast Overcast  
Wind Chill: 51°   Ceiling: 900
Heat Index: 51°   Visibility: 10mi
Dew Point: 49°   Wind: 12mph
Humidity: 94%   Direction: 180°S
Pressure: 29.79"   Gusts: NA
Location:  32.2818°N, 94.951°W
Report Text: KRFI 220755Z AUTO 18010KT 10SM OVC009 11/10 A2979 RMK AO2 T01050095
Loading
Personal Weather Stations






























Interactive Weather Map New forecast layout! Learn more

10-Day Weather Forecast

Advertisements
Track Severe Weather on mobile